Adventure of The Seas — C6SA3 — position and weather

sailwx.info

Track history (hours):
 
Tides and Currents Weather Stations Pressure Air Temp Water Temp Dewpoint Dewpoint Depression Visibility Wind Speed Wind Dir Waves Ship Positions

Adventure of The Seas

Operator: Royal Caribbean Cruises Ltd

Last reported at 2019-Jan-24 05:00 UTC. Time now 2019-Jan-24 06:44 UTC.
Position N 17°06' W 063°06'.

Type: Passenger vessel. MMSI: 311263000.

Wind from 090 at 23 knots

Barometer 1019.4 mb
Air temperature 26.0 ° C
Visibility: greater than 27.0 NM
Dewpoint 24.6 ° C
Water temperature 25.0 ° C

Date/timePositionNaut miles runAvg speedWind from/ knotsBaromVisibWave heightAir tempDewpointWater temp
2019-Jan-24 05:00N 17°06' W 063°06'20 9.3 090 / 231019.427.0 26.024.625.0
2019-Jan-24 02:52N 17°26' W 063°06'4 8.6
2019-Jan-24 02:27N 17°29' W 063°06'5 8.4
2019-Jan-24 01:52N 17°34' W 063°06'3 8.3
2019-Jan-24 01:31N 17°37' W 063°06'5 8.4
2019-Jan-24 00:53N 17°42' W 063°06'4 8.8
2019-Jan-24 00:27N 17°46' W 063°06'7 8.5
2019-Jan-23 23:39N 17°53' W 063°06'6 8.4
2019-Jan-23 22:54N 17°59' W 063°06'3 5.9
2019-Jan-23 22:23N 18°01' W 063°03'0 0.0
2019-Jan-23 21:50N 18°01' W 063°03'0 0.0
2019-Jan-23 21:20N 18°01' W 063°03'0 0.0
2019-Jan-23 20:53N 18°01' W 063°03'0 0.0
2019-Jan-23 20:20N 18°01' W 063°03'0 0.0
2019-Jan-23 19:56N 18°01' W 063°03'0 0.0
2019-Jan-23 19:20N 18°01' W 063°03'0 0.0
2019-Jan-23 18:56N 18°01' W 063°03'0 0.0
2019-Jan-23 18:26N 18°01' W 063°03'0 0.0
2019-Jan-23 17:38N 18°01' W 063°03'0 0.0
2019-Jan-23 17:14N 18°01' W 063°03'0 0.0
2019-Jan-23 16:44N 18°01' W 063°03'0 0.0
2019-Jan-23 16:14N 18°01' W 063°03'0 0.0
2019-Jan-23 15:56N 18°01' W 063°03'0 0.0
2019-Jan-23 15:29N 18°01' W 063°03'0 0.0
2019-Jan-23 14:56N 18°01' W 063°03'0 0.0
2019-Jan-23 14:14N 18°01' W 063°03'0 0.0
2019-Jan-23 13:59N 18°01' W 063°03'0 0.0
2019-Jan-23 13:26N 18°01' W 063°03'0 0.0
2019-Jan-23 12:59N 18°01' W 063°03'0 0.0
2019-Jan-23 12:29N 18°01' W 063°03'0 0.0
2019-Jan-23 11:59N 18°01' W 063°03'0 0.1
2019-Jan-23 11:28N 18°01' W 063°03'910.0
2019-Jan-23 10:35N 17°60' W 063°12'920.4
2019-Jan-23 10:09N 18°02' W 063°21'421.2
2019-Jan-23 09:59N 18°02' W 063°25'1020.4
2019-Jan-23 09:30N 18°04' W 063°35'7019.9
2019-Jan-23 06:00N 18°12' W 064°48'238.8 080 / 271019.927.0 26.024.625.0
2019-Jan-23 05:57N 18°11' W 064°46'817.8
2019-Jan-23 05:30N 18°12' W 064°54'22510.0
2019-Jan-22 07:00N 19°18' W 068°42'28010.8 080 / 161018.527.0 27.025.726.0
2019-Jan-21 05:00N 20°30' W 073°30'37818.9 190 / 101017.927.0 26.024.625.0
2019-Jan-20 09:00N 23°48' W 079°18'8617.1 180 / 261013.527.0 26.024.625.0
2019-Jan-20 04:00N 25°12' W 079°36'2014.0 180 / 201014.410.8 26.0
2019-Jan-20 02:35N 25°32' W 079°37'116.1
2019-Jan-20 02:30N 25°33' W 079°37'714.2
2019-Jan-20 02:00N 25°40' W 079°38'612.9
2019-Jan-20 01:30N 25°46' W 079°38'612.8
2019-Jan-20 01:00N 25°53' W 079°40'612.6
2019-Jan-20 00:30N 25°57' W 079°45'713.7
2019-Jan-20 00:00N 26°00' W 079°52'714.1
2019-Jan-19 23:30N 26°03' W 079°59'612.1
2019-Jan-19 23:01N 26°06' W 080°05'2 3.7
2019-Jan-19 22:30N 26°05' W 080°07'0 0.1
2019-Jan-19 21:59N 26°05' W 080°07'0 0.0
2019-Jan-19 21:29N 26°05' W 080°07'0 0.0
2019-Jan-19 20:59N 26°05' W 080°07'0 0.0
2019-Jan-19 20:29N 26°05' W 080°07'0 0.0
2019-Jan-19 19:59N 26°05' W 080°07'0 0.0
2019-Jan-19 19:29N 26°05' W 080°07'0 0.0
2019-Jan-19 18:59N 26°05' W 080°07'0 0.0
2019-Jan-19 18:29N 26°05' W 080°07'0 0.0
2019-Jan-19 17:59N 26°05' W 080°07'0 0.0
2019-Jan-19 17:20N 26°05' W 080°07'0 0.0
2019-Jan-19 16:50N 26°05' W 080°07'0 0.0
2019-Jan-19 16:20N 26°05' W 080°07'0 0.0
2019-Jan-19 15:50N 26°05' W 080°07'0 0.0
2019-Jan-19 15:23N 26°05' W 080°07'0 0.0
2019-Jan-19 14:53N 26°05' W 080°07'0 0.0
2019-Jan-19 14:23N 26°05' W 080°07'0 0.0
2019-Jan-19 13:53N 26°05' W 080°07'0 0.0
2019-Jan-19 13:23N 26°05' W 080°07'0 0.0
2019-Jan-19 12:56N 26°05' W 080°07'0 0.0
2019-Jan-19 12:26N 26°05' W 080°07'0 0.0
2019-Jan-19 11:56N 26°05' W 080°07'0 0.0
2019-Jan-19 11:26N 26°05' W 080°07'0 0.0
2019-Jan-19 10:56N 26°05' W 080°07'0 0.0
2019-Jan-19 10:29N 26°05' W 080°07'1 1.4
2019-Jan-19 10:00N 26°06' W 080°07'5 9.2
2019-Jan-19 09:30N 26°06' W 080°02'612.7
2019-Jan-19 09:00N 26°05' W 079°55'611.1
2019-Jan-19 08:30N 26°01' W 079°51'612.5
2019-Jan-19 08:00N 25°54' W 079°51'714.9
2019-Jan-19 07:30N 25°47' W 079°52'816.5
2019-Jan-19 07:00N 25°39' W 079°52'816.3
2019-Jan-19 06:30N 25°30' W 079°53'1224.8
2019-Jan-19 06:00N 25°18' W 079°54'30914.7 090 / 151019.5 26.024.625.0
2019-Jan-18 09:00N 22°54' W 084°54'17317.2 040 / 151019.0 26.024.625.0
2019-Jan-17 22:55N 20°41' W 086°53'718.3
2019-Jan-17 22:30N 20°35' W 086°58'610.4
2019-Jan-17 21:57N 20°29' W 086°59'0 0.0
2019-Jan-17 21:30N 20°29' W 086°59'0 0.0
2019-Jan-17 21:00N 20°29' W 086°59'0 0.0
2019-Jan-17 20:30N 20°29' W 086°59'0 0.0
2019-Jan-17 20:00N 20°29' W 086°59'0 0.0
2019-Jan-17 19:30N 20°29' W 086°59'0 0.0
2019-Jan-17 19:00N 20°29' W 086°59'0 0.0
2019-Jan-17 18:30N 20°29' W 086°59'0 0.0
2019-Jan-17 17:57N 20°29' W 086°59'0 0.0
2019-Jan-17 17:30N 20°29' W 086°59'0 0.0
2019-Jan-17 17:00N 20°29' W 086°59'0 0.0
2019-Jan-17 16:30N 20°29' W 086°59'0 0.0
2019-Jan-17 16:00N 20°29' W 086°59'0 0.0
2019-Jan-17 15:30N 20°29' W 086°59'0 0.0
2019-Jan-17 15:00N 20°29' W 086°59'0 0.0
2019-Jan-17 14:30N 20°29' W 086°59'0 0.0
2019-Jan-17 14:00N 20°29' W 086°59'0 0.0
2019-Jan-17 13:30N 20°29' W 086°59'0 0.0
2019-Jan-17 13:00N 20°29' W 086°59'0 0.0
2019-Jan-17 12:30N 20°29' W 086°59'1 2.3
2019-Jan-17 12:00N 20°29' W 086°60'4 8.8
2019-Jan-17 11:30N 20°26' W 087°03'44 9.8
2019-Jan-17 07:00N 19°42' W 087°06'98 4.2 060 / 221019.8 26.024.625.0
2019-Jan-16 08:00N 18°54' W 085°36'18222.8 020 / 241018.527.0 26.024.625.0
2019-Jan-16 00:00N 19°12' W 082°24'36 2.1 020 / 301017.510.8 27.0
2019-Jan-15 07:00N 19°48' W 082°18'26911.7 050 / 261017.110.8 26.024.625.0
2019-Jan-14 08:00N 24°12' W 081°24'   350 / 161020.310.8 24.024.024.0
Track history (hours):
 
Tides and Currents Weather Stations Pressure Air Temp Water Temp Dewpoint Dewpoint Depression Visibility Wind Speed Wind Dir Waves Ship Positions

Adventure of The Seas

Operator: Royal Caribbean Cruises Ltd

Last reported at 2019-Jan-24 05:00 UTC. Time now 2019-Jan-24 06:44 UTC.
Position N 17°06' W 063°06'.

Type: Passenger vessel. MMSI: 311263000.

Wind from 090 at 23 knots

Barometer 1019.4 mb
Air temperature 26.0 ° C
Visibility: greater than 27.0 NM
Dewpoint 24.6 ° C
Water temperature 25.0 ° C

Date/timePositionNaut miles runAvg speedWind from/ knotsBaromVisibWave heightAir tempDewpointWater temp
2019-Jan-24 05:00N 17°06' W 063°06'20 9.3 090 / 231019.427.0 26.024.625.0
2019-Jan-24 02:52N 17°26' W 063°06'4 8.6
2019-Jan-24 02:27N 17°29' W 063°06'5 8.4
2019-Jan-24 01:52N 17°34' W 063°06'3 8.3
2019-Jan-24 01:31N 17°37' W 063°06'5 8.4
2019-Jan-24 00:53N 17°42' W 063°06'4 8.8
2019-Jan-24 00:27N 17°46' W 063°06'7 8.5
2019-Jan-23 23:39N 17°53' W 063°06'6 8.4
2019-Jan-23 22:54N 17°59' W 063°06'3 5.9
2019-Jan-23 22:23N 18°01' W 063°03'0 0.0
2019-Jan-23 21:50N 18°01' W 063°03'0 0.0
2019-Jan-23 21:20N 18°01' W 063°03'0 0.0
2019-Jan-23 20:53N 18°01' W 063°03'0 0.0
2019-Jan-23 20:20N 18°01' W 063°03'0 0.0
2019-Jan-23 19:56N 18°01' W 063°03'0 0.0
2019-Jan-23 19:20N 18°01' W 063°03'0 0.0
2019-Jan-23 18:56N 18°01' W 063°03'0 0.0
2019-Jan-23 18:26N 18°01' W 063°03'0 0.0
2019-Jan-23 17:38N 18°01' W 063°03'0 0.0
2019-Jan-23 17:14N 18°01' W 063°03'0 0.0
2019-Jan-23 16:44N 18°01' W 063°03'0 0.0
2019-Jan-23 16:14N 18°01' W 063°03'0 0.0
2019-Jan-23 15:56N 18°01' W 063°03'0 0.0
2019-Jan-23 15:29N 18°01' W 063°03'0 0.0
2019-Jan-23 14:56N 18°01' W 063°03'0 0.0
2019-Jan-23 14:14N 18°01' W 063°03'0 0.0
2019-Jan-23 13:59N 18°01' W 063°03'0 0.0
2019-Jan-23 13:26N 18°01' W 063°03'0 0.0
2019-Jan-23 12:59N 18°01' W 063°03'0 0.0
2019-Jan-23 12:29N 18°01' W 063°03'0 0.0
2019-Jan-23 11:59N 18°01' W 063°03'0 0.1
2019-Jan-23 11:28N 18°01' W 063°03'910.0
2019-Jan-23 10:35N 17°60' W 063°12'920.4
2019-Jan-23 10:09N 18°02' W 063°21'421.2
2019-Jan-23 09:59N 18°02' W 063°25'1020.4
2019-Jan-23 09:30N 18°04' W 063°35'7019.9
2019-Jan-23 06:00N 18°12' W 064°48'238.8 080 / 271019.927.0 26.024.625.0
2019-Jan-23 05:57N 18°11' W 064°46'817.8
2019-Jan-23 05:30N 18°12' W 064°54'22510.0
2019-Jan-22 07:00N 19°18' W 068°42'28010.8 080 / 161018.527.0 27.025.726.0
2019-Jan-21 05:00N 20°30' W 073°30'37818.9 190 / 101017.927.0 26.024.625.0
2019-Jan-20 09:00N 23°48' W 079°18'8617.1 180 / 261013.527.0 26.024.625.0
2019-Jan-20 04:00N 25°12' W 079°36'2014.0 180 / 201014.410.8 26.0
2019-Jan-20 02:35N 25°32' W 079°37'116.1
2019-Jan-20 02:30N 25°33' W 079°37'714.2
2019-Jan-20 02:00N 25°40' W 079°38'612.9
2019-Jan-20 01:30N 25°46' W 079°38'612.8
2019-Jan-20 01:00N 25°53' W 079°40'612.6
2019-Jan-20 00:30N 25°57' W 079°45'713.7
2019-Jan-20 00:00N 26°00' W 079°52'714.1
2019-Jan-19 23:30N 26°03' W 079°59'612.1
2019-Jan-19 23:01N 26°06' W 080°05'2 3.7
2019-Jan-19 22:30N 26°05' W 080°07'0 0.1
2019-Jan-19 21:59N 26°05' W 080°07'0 0.0
2019-Jan-19 21:29N 26°05' W 080°07'0 0.0
2019-Jan-19 20:59N 26°05' W 080°07'0 0.0
2019-Jan-19 20:29N 26°05' W 080°07'0 0.0
2019-Jan-19 19:59N 26°05' W 080°07'0 0.0
2019-Jan-19 19:29N 26°05' W 080°07'0 0.0
2019-Jan-19 18:59N 26°05' W 080°07'0 0.0
2019-Jan-19 18:29N 26°05' W 080°07'0 0.0
2019-Jan-19 17:59N 26°05' W 080°07'0 0.0
2019-Jan-19 17:20N 26°05' W 080°07'0 0.0
2019-Jan-19 16:50N 26°05' W 080°07'0 0.0
2019-Jan-19 16:20N 26°05' W 080°07'0 0.0
2019-Jan-19 15:50N 26°05' W 080°07'0 0.0
2019-Jan-19 15:23N 26°05' W 080°07'0 0.0
2019-Jan-19 14:53N 26°05' W 080°07'0 0.0
2019-Jan-19 14:23N 26°05' W 080°07'0 0.0
2019-Jan-19 13:53N 26°05' W 080°07'0 0.0
2019-Jan-19 13:23N 26°05' W 080°07'0 0.0
2019-Jan-19 12:56N 26°05' W 080°07'0 0.0
2019-Jan-19 12:26N 26°05' W 080°07'0 0.0
2019-Jan-19 11:56N 26°05' W 080°07'0 0.0
2019-Jan-19 11:26N 26°05' W 080°07'0 0.0
2019-Jan-19 10:56N 26°05' W 080°07'0 0.0
2019-Jan-19 10:29N 26°05' W 080°07'1 1.4
2019-Jan-19 10:00N 26°06' W 080°07'5 9.2
2019-Jan-19 09:30N 26°06' W 080°02'612.7
2019-Jan-19 09:00N 26°05' W 079°55'611.1
2019-Jan-19 08:30N 26°01' W 079°51'612.5
2019-Jan-19 08:00N 25°54' W 079°51'714.9
2019-Jan-19 07:30N 25°47' W 079°52'816.5
2019-Jan-19 07:00N 25°39' W 079°52'816.3
2019-Jan-19 06:30N 25°30' W 079°53'1224.8
2019-Jan-19 06:00N 25°18' W 079°54'30914.7 090 / 151019.5 26.024.625.0
2019-Jan-18 09:00N 22°54' W 084°54'17317.2 040 / 151019.0 26.024.625.0
2019-Jan-17 22:55N 20°41' W 086°53'718.3
2019-Jan-17 22:30N 20°35' W 086°58'610.4
2019-Jan-17 21:57N 20°29' W 086°59'0 0.0
2019-Jan-17 21:30N 20°29' W 086°59'0 0.0
2019-Jan-17 21:00N 20°29' W 086°59'0 0.0
2019-Jan-17 20:30N 20°29' W 086°59'0 0.0
2019-Jan-17 20:00N 20°29' W 086°59'0 0.0
2019-Jan-17 19:30N 20°29' W 086°59'0 0.0
2019-Jan-17 19:00N 20°29' W 086°59'0 0.0
2019-Jan-17 18:30N 20°29' W 086°59'0 0.0
2019-Jan-17 17:57N 20°29' W 086°59'0 0.0
2019-Jan-17 17:30N 20°29' W 086°59'0 0.0
2019-Jan-17 17:00N 20°29' W 086°59'0 0.0
2019-Jan-17 16:30N 20°29' W 086°59'0 0.0
2019-Jan-17 16:00N 20°29' W 086°59'0 0.0
2019-Jan-17 15:30N 20°29' W 086°59'0 0.0
2019-Jan-17 15:00N 20°29' W 086°59'0 0.0
2019-Jan-17 14:30N 20°29' W 086°59'0 0.0
2019-Jan-17 14:00N 20°29' W 086°59'0 0.0
2019-Jan-17 13:30N 20°29' W 086°59'0 0.0
2019-Jan-17 13:00N 20°29' W 086°59'0 0.0
2019-Jan-17 12:30N 20°29' W 086°59'1 2.3
2019-Jan-17 12:00N 20°29' W 086°60'4 8.8
2019-Jan-17 11:30N 20°26' W 087°03'44 9.8
2019-Jan-17 07:00N 19°42' W 087°06'98 4.2 060 / 221019.8 26.024.625.0
2019-Jan-16 08:00N 18°54' W 085°36'18222.8 020 / 241018.527.0 26.024.625.0
2019-Jan-16 00:00N 19°12' W 082°24'36 2.1 020 / 301017.510.8 27.0
2019-Jan-15 07:00N 19°48' W 082°18'26911.7 050 / 261017.110.8 26.024.625.0
2019-Jan-14 08:00N 24°12' W 081°24'   350 / 161020.310.8 24.024.024.0

Dump ship's entire track history